Time;durP1;ratioP1;P1;durP2;ratioP2;P2;SDS_P1;SDS_P2;PMS_P1;PMS_P2;Temp;Humidity;BMP_temperature;BMP_pressure;BME280_temperature;BME280_humidity;BME280_pressure;Samples;Min_cycle;Max_cycle;Signal;HPM_P1;HPM_P2
2021/03/17 00:01:30;;;;;;;19.00;8.67;;;3.40;99.90;;;;;;4176183;28;20464;-55
2021/03/17 00:03:32;;;;;;;24.90;11.17;;;3.30;99.90;;;;;;4177094;28;20474;-55
2021/03/17 00:05:37;;;;;;;29.17;11.33;;;3.30;99.90;;;;;;4176257;28;20478;-55
2021/03/17 00:07:38;;;;;;;21.63;10.23;;;3.30;99.90;;;;;;4175693;28;20483;-57
2021/03/17 00:09:40;;;;;;;22.13;10.70;;;3.30;99.90;;;;;;4176743;28;20470;-55
2021/03/17 00:11:41;;;;;;;24.30;10.60;;;3.30;99.90;;;;;;4175932;28;20478;-55
2021/03/17 00:13:43;;;;;;;24.87;10.57;;;3.30;99.90;;;;;;4176151;28;20522;-55
2021/03/17 00:15:45;;;;;;;22.03;10.33;;;3.30;99.90;;;;;;4176566;28;20477;-55
2021/03/17 00:17:46;;;;;;;25.47;11.10;;;3.30;99.90;;;;;;4175435;28;21025;-55
2021/03/17 00:19:48;;;;;;;23.93;10.87;;;3.30;99.90;;;;;;4175752;28;21144;-55
2021/03/17 00:21:49;;;;;;;21.93;9.97;;;3.30;99.90;;;;;;4176316;28;21322;-55
2021/03/17 00:23:50;;;;;;;21.60;9.83;;;3.30;99.90;;;;;;4176394;28;20471;-55
2021/03/17 00:25:52;;;;;;;21.00;9.77;;;3.30;99.90;;;;;;4175150;28;20606;-55
2021/03/17 00:27:53;;;;;;;24.77;11.10;;;3.30;99.90;;;;;;4176216;28;20469;-55
2021/03/17 00:29:55;;;;;;;24.40;11.27;;;3.30;99.90;;;;;;4175913;28;20908;-55
2021/03/17 00:31:57;;;;;;;28.27;11.73;;;3.30;99.90;;;;;;4176244;28;20510;-55
2021/03/17 00:33:58;;;;;;;33.07;11.87;;;3.40;99.90;;;;;;4176163;28;20495;-55
2021/03/17 00:35:59;;;;;;;32.80;12.67;;;3.40;99.90;;;;;;4177172;28;20464;-59
2021/03/17 00:38:01;;;;;;;29.37;12.73;;;3.40;99.90;;;;;;4176848;28;20461;-57
2021/03/17 00:40:04;;;;;;;29.60;12.50;;;3.40;99.90;;;;;;4179641;28;20478;-58
2021/03/17 00:42:58;;;;;;;32.37;13.17;;;3.40;99.90;;;;;;4180707;28;20488;-55
2021/03/17 00:45:00;;;;;;;28.40;11.57;;;3.40;99.90;;;;;;4180420;28;20498;-55
2021/03/17 00:47:02;;;;;;;25.60;11.57;;;3.40;99.90;;;;;;4179489;28;20529;-55
2021/03/17 00:49:03;;;;;;;30.23;12.23;;;3.40;99.90;;;;;;4180778;28;21126;-55
2021/03/17 00:51:05;;;;;;;31.00;13.27;;;3.40;99.90;;;;;;4180487;28;20478;-55
2021/03/17 00:53:06;;;;;;;28.57;12.13;;;3.40;99.90;;;;;;4180519;28;20474;-55
2021/03/17 00:55:09;;;;;;;31.43;12.27;;;3.40;99.90;;;;;;4178826;28;20468;-55
2021/03/17 00:57:11;;;;;;;30.77;12.73;;;3.40;99.90;;;;;;4180131;28;20946;-55
2021/03/17 00:59:12;;;;;;;31.60;12.80;;;3.40;99.90;;;;;;4179637;28;21493;-55
2021/03/17 01:01:14;;;;;;;33.67;13.13;;;3.40;99.90;;;;;;4180141;28;22473;-55
2021/03/17 01:03:16;;;;;;;31.50;13.20;;;3.30;99.90;;;;;;4178866;28;20487;-54
2021/03/17 01:05:33;;;;;;;30.93;12.97;;;3.30;99.90;;;;;;4177602;28;21159;-55
2021/03/17 01:07:34;;;;;;;30.00;12.77;;;3.30;99.90;;;;;;4178511;28;20474;-55
2021/03/17 01:09:35;;;;;;;29.63;12.07;;;3.30;99.90;;;;;;4178518;28;20484;-55
2021/03/17 01:11:37;;;;;;;29.17;11.80;;;3.30;99.90;;;;;;4176877;28;20558;-55
2021/03/17 01:13:38;;;;;;;29.67;13.63;;;3.20;99.90;;;;;;4177253;28;20468;-56
2021/03/17 01:15:40;;;;;;;30.60;12.47;;;3.20;99.90;;;;;;4178029;28;20462;-55
2021/03/17 01:17:42;;;;;;;28.80;12.20;;;3.20;99.90;;;;;;4178685;28;20514;-55
2021/03/17 01:19:43;;;;;;;28.13;11.90;;;3.20;99.90;;;;;;4178349;28;21037;-55
2021/03/17 01:21:45;;;;;;;25.63;11.10;;;3.20;99.90;;;;;;4178498;28;20487;-55
2021/03/17 01:23:46;;;;;;;26.70;11.37;;;3.20;99.90;;;;;;4178958;28;20813;-55
2021/03/17 01:25:48;;;;;;;33.47;12.97;;;3.20;99.90;;;;;;4177708;28;20486;-55
2021/03/17 01:27:49;;;;;;;30.80;12.93;;;3.20;99.90;;;;;;4179762;28;20584;-55
2021/03/17 01:29:50;;;;;;;29.63;13.03;;;3.20;99.90;;;;;;4178483;28;20478;-58
2021/03/17 01:31:52;;;;;;;30.57;11.93;;;3.20;99.90;;;;;;4179981;28;20475;-56
2021/03/17 01:33:54;;;;;;;26.03;11.57;;;3.20;99.90;;;;;;4179792;28;21228;-56
2021/03/17 01:35:57;;;;;;;27.40;11.07;;;3.20;99.90;;;;;;4179583;28;20476;-55
2021/03/17 01:37:58;;;;;;;28.03;11.73;;;3.30;99.90;;;;;;4179751;28;20484;-55
2021/03/17 01:40:00;;;;;;;29.43;11.63;;;3.30;99.90;;;;;;4178257;28;20506;-55
2021/03/17 01:42:01;;;;;;;30.60;12.93;;;3.30;99.90;;;;;;4179579;28;20519;-55
2021/03/17 01:44:03;;;;;;;32.37;12.60;;;3.30;99.90;;;;;;4178801;28;20688;-55
2021/03/17 01:46:05;;;;;;;28.17;11.00;;;3.20;99.90;;;;;;4178411;28;20507;-55
2021/03/17 01:48:07;;;;;;;25.67;11.97;;;3.30;99.90;;;;;;4179335;28;20762;-55
2021/03/17 01:50:12;;;;;;;28.17;12.27;;;3.20;99.90;;;;;;4179713;28;20475;-55
2021/03/17 01:52:13;;;;;;;30.13;12.27;;;3.20;99.90;;;;;;4177897;28;20471;-55
2021/03/17 01:54:15;;;;;;;25.27;11.27;;;3.20;99.90;;;;;;4179815;28;20472;-55
2021/03/17 01:56:16;;;;;;;26.03;11.33;;;3.10;99.90;;;;;;4180025;28;20476;-55
2021/03/17 01:58:19;;;;;;;29.43;12.47;;;3.20;99.90;;;;;;4178364;28;20486;-53
2021/03/17 02:00:21;;;;;;;25.80;11.33;;;3.10;99.90;;;;;;4177895;28;20475;-55
2021/03/17 02:02:23;;;;;;;25.63;11.47;;;3.10;99.90;;;;;;4178424;28;20479;-55
2021/03/17 02:04:25;;;;;;;26.83;11.43;;;3.00;99.90;;;;;;4179552;28;20487;-55
2021/03/17 02:06:27;;;;;;;27.37;10.87;;;2.90;99.90;;;;;;4179020;28;20503;-55
2021/03/17 02:08:32;;;;;;;27.43;11.37;;;2.90;99.90;;;;;;4179725;28;20953;-55
2021/03/17 02:10:35;;;;;;;21.53;10.13;;;2.80;99.90;;;;;;4178028;28;20494;-55
2021/03/17 02:12:46;;;;;;;21.07;9.50;;;2.80;99.90;;;;;;4177363;28;20487;-55
2021/03/17 02:14:58;;;;;;;21.00;9.63;;;2.70;99.90;;;;;;4177663;28;20481;-55
2021/03/17 02:17:05;;;;;;;19.07;8.80;;;2.60;99.90;;;;;;4177577;28;20989;-55
2021/03/17 02:19:59;;;;;;;20.30;8.73;;;2.60;99.90;;;;;;4177506;28;20465;-55
2021/03/17 02:22:35;;;;;;;19.60;7.90;;;2.50;99.90;;;;;;4177617;28;20498;-55
2021/03/17 02:24:45;;;;;;;18.63;8.37;;;2.40;99.90;;;;;;4173425;28;20576;-54
2021/03/17 02:27:22;;;;;;;28.07;11.93;;;2.30;99.90;;;;;;4177333;28;20492;-55
2021/03/17 02:30:08;;;;;;;30.47;11.90;;;2.30;99.90;;;;;;4160506;28;20471;-54
2021/03/17 02:32:13;;;;;;;31.93;12.23;;;2.30;99.90;;;;;;4156833;28;20545;-55
2021/03/17 02:34:18;;;;;;;32.87;12.07;;;2.30;99.90;;;;;;4177068;28;20466;-55
2021/03/17 02:36:25;;;;;;;32.33;12.37;;;2.30;99.90;;;;;;4177288;28;20459;-55
2021/03/17 02:38:28;;;;;;;30.13;12.20;;;2.20;99.90;;;;;;4176451;28;20483;-55
2021/03/17 02:40:33;;;;;;;29.97;12.13;;;2.10;99.90;;;;;;4176715;28;20464;-55
2021/03/17 02:42:37;;;;;;;31.77;12.87;;;2.10;99.90;;;;;;4176261;28;20477;-55
2021/03/17 02:44:44;;;;;;;33.13;12.90;;;2.10;99.90;;;;;;4176870;28;21517;-55
2021/03/17 02:46:46;;;;;;;33.60;12.60;;;2.10;99.90;;;;;;4176687;28;20482;-55
2021/03/17 02:48:52;;;;;;;32.73;13.03;;;2.00;99.90;;;;;;4177424;28;20482;-55
2021/03/17 02:50:56;;;;;;;32.67;11.73;;;2.00;99.90;;;;;;4176444;28;20476;-55
2021/03/17 02:52:58;;;;;;;36.17;13.40;;;2.10;99.90;;;;;;4176038;28;21037;-55
2021/03/17 02:55:01;;;;;;;37.77;13.57;;;2.10;99.90;;;;;;4178089;28;20508;-55
2021/03/17 02:57:07;;;;;;;35.07;13.10;;;2.10;99.90;;;;;;4175915;28;20497;-55
2021/03/17 02:59:09;;;;;;;35.03;13.43;;;2.10;99.90;;;;;;4176336;28;20602;-54
2021/03/17 03:01:15;;;;;;;32.73;13.07;;;2.10;99.90;;;;;;4176977;28;20817;-55
2021/03/17 03:03:19;;;;;;;36.13;12.30;;;2.20;99.90;;;;;;4176550;28;20480;-55
2021/03/17 03:05:21;;;;;;;34.33;12.83;;;2.10;99.90;;;;;;4176354;28;20557;-55
2021/03/17 03:07:23;;;;;;;29.27;11.90;;;2.20;99.90;;;;;;4175775;28;20505;-55
2021/03/17 03:09:27;;;;;;;31.67;12.97;;;2.10;99.90;;;;;;4176757;28;20992;-55
2021/03/17 03:11:28;;;;;;;31.37;12.30;;;2.10;99.90;;;;;;4177019;28;20465;-55
2021/03/17 03:13:32;;;;;;;32.60;12.37;;;2.10;99.90;;;;;;4177051;28;20469;-59
2021/03/17 03:15:36;;;;;;;35.67;13.67;;;2.00;99.90;;;;;;4177447;28;20474;-55
2021/03/17 03:17:39;;;;;;;33.10;12.67;;;2.00;99.90;;;;;;4176512;28;20477;-54
2021/03/17 03:19:44;;;;;;;35.37;13.43;;;2.00;99.90;;;;;;4175813;28;20466;-55
2021/03/17 03:21:46;;;;;;;36.40;13.83;;;2.00;99.90;;;;;;4178344;28;20469;-55
2021/03/17 03:23:49;;;;;;;45.93;14.97;;;2.00;99.90;;;;;;4178727;28;20466;-54
2021/03/17 03:25:51;;;;;;;46.00;15.03;;;2.00;99.90;;;;;;4178235;28;20514;-55
2021/03/17 03:27:54;;;;;;;38.67;13.83;;;2.10;99.90;;;;;;4178065;28;20475;-54
2021/03/17 03:29:56;;;;;;;39.73;13.43;;;2.00;99.90;;;;;;4177383;28;20488;-55
2021/03/17 03:31:58;;;;;;;32.77;13.27;;;2.00;99.90;;;;;;4177774;28;20996;-55
2021/03/17 03:34:01;;;;;;;31.47;13.13;;;2.10;99.90;;;;;;4179905;28;20496;-54
2021/03/17 03:36:02;;;;;;;33.63;12.97;;;2.00;99.90;;;;;;4179940;28;20465;-55
2021/03/17 03:38:05;;;;;;;33.00;13.13;;;2.00;99.90;;;;;;4181049;28;20501;-55
2021/03/17 03:40:10;;;;;;;28.60;12.00;;;2.00;99.90;;;;;;4178260;28;20486;-55
2021/03/17 03:42:12;;;;;;;26.20;11.63;;;2.00;99.90;;;;;;4178227;28;20470;-55
2021/03/17 03:44:13;;;;;;;33.07;12.73;;;1.90;99.90;;;;;;4178477;28;20523;-55
2021/03/17 03:46:14;;;;;;;29.83;11.77;;;1.80;99.90;;;;;;4175953;28;21036;-54
2021/03/17 03:48:16;;;;;;;30.17;11.57;;;1.80;99.90;;;;;;4178862;28;20840;-55
2021/03/17 03:50:21;;;;;;;30.77;12.43;;;1.70;99.90;;;;;;4178928;28;20493;-54
2021/03/17 03:52:31;;;;;;;32.67;12.43;;;1.60;99.90;;;;;;4177010;28;20469;-55
2021/03/17 03:54:39;;;;;;;28.23;12.10;;;1.50;99.90;;;;;;4176813;28;20468;-55
2021/03/17 03:56:48;;;;;;;34.60;13.30;;;1.50;99.90;;;;;;4176991;28;20480;-55
2021/03/17 03:58:55;;;;;;;33.20;12.50;;;1.50;99.90;;;;;;4176700;28;20501;-54
2021/03/17 04:01:05;;;;;;;32.83;12.47;;;1.50;99.90;;;;;;4176780;28;20979;-54
2021/03/17 04:03:08;;;;;;;35.03;13.23;;;1.60;99.90;;;;;;4178300;28;20475;-55
2021/03/17 04:05:11;;;;;;;36.47;13.43;;;1.60;99.90;;;;;;4176237;28;20483;-55
2021/03/17 04:07:15;;;;;;;36.83;13.03;;;1.70;99.90;;;;;;4176191;28;20528;-55
2021/03/17 04:09:23;;;;;;;32.93;12.50;;;1.70;99.90;;;;;;4179090;28;21070;-55
2021/03/17 04:11:25;;;;;;;32.93;12.63;;;1.80;99.90;;;;;;4177909;28;20488;-54
2021/03/17 04:13:29;;;;;;;36.20;12.67;;;1.80;99.90;;;;;;4179354;28;20507;-55
2021/03/17 04:15:33;;;;;;;35.93;11.63;;;1.80;99.90;;;;;;4181294;28;20827;-54
2021/03/17 04:17:39;;;;;;;32.47;12.83;;;1.80;99.90;;;;;;4181857;28;21314;-55
2021/03/17 04:19:44;;;;;;;34.17;13.00;;;1.80;99.90;;;;;;4179520;28;20462;-54
2021/03/17 04:21:47;;;;;;;34.13;12.40;;;1.90;99.90;;;;;;4180261;28;20496;-55
2021/03/17 04:23:51;;;;;;;33.57;12.50;;;1.80;99.90;;;;;;4179174;28;20507;-55
2021/03/17 04:25:54;;;;;;;30.10;12.93;;;1.80;99.90;;;;;;4179622;28;20469;-54
2021/03/17 04:27:57;;;;;;;36.00;12.67;;;1.80;99.90;;;;;;4179781;28;20484;-55
2021/03/17 04:30:01;;;;;;;30.90;12.17;;;1.80;99.90;;;;;;4179522;28;20791;-54
2021/03/17 04:32:05;;;;;;;28.93;11.57;;;1.70;99.90;;;;;;4180191;28;20482;-55
2021/03/17 04:34:09;;;;;;;35.27;12.20;;;1.70;99.90;;;;;;4181072;28;20496;-55
2021/03/17 04:36:12;;;;;;;28.73;11.17;;;1.70;99.90;;;;;;4180418;28;20466;-57
2021/03/17 04:38:15;;;;;;;32.00;12.47;;;1.70;99.90;;;;;;4180704;28;20472;-55
2021/03/17 04:40:17;;;;;;;29.40;11.53;;;1.60;99.90;;;;;;4179854;28;20472;-60
2021/03/17 04:42:20;;;;;;;29.40;11.70;;;1.60;99.90;;;;;;4179512;28;20495;-55
2021/03/17 04:44:22;;;;;;;31.77;11.40;;;1.60;99.90;;;;;;4181169;28;20468;-57
2021/03/17 04:46:24;;;;;;;33.53;12.73;;;1.60;99.90;;;;;;4181792;28;20481;-55
2021/03/17 04:48:27;;;;;;;38.50;12.23;;;1.60;99.90;;;;;;4180465;28;22257;-55
2021/03/17 04:50:29;;;;;;;36.73;12.67;;;1.70;99.90;;;;;;4180695;28;20470;-55
2021/03/17 04:52:35;;;;;;;34.17;12.30;;;1.70;99.90;;;;;;4179946;28;20492;-58
2021/03/17 04:54:36;;;;;;;28.23;11.63;;;1.70;99.90;;;;;;4180438;28;20473;-55
2021/03/17 04:56:42;;;;;;;32.03;11.90;;;1.70;99.90;;;;;;4180141;28;20461;-55
2021/03/17 04:58:43;;;;;;;35.03;12.20;;;1.70;99.90;;;;;;4179401;28;20506;-55
2021/03/17 05:00:48;;;;;;;32.33;12.80;;;1.70;99.90;;;;;;4179530;28;20504;-55
2021/03/17 05:02:54;;;;;;;36.43;13.23;;;1.80;99.90;;;;;;4179750;28;20524;-55
2021/03/17 05:04:57;;;;;;;31.90;13.07;;;1.80;99.90;;;;;;4181273;28;20460;-55
2021/03/17 05:06:58;;;;;;;33.27;12.83;;;1.80;99.90;;;;;;4183126;28;20545;-54
2021/03/17 05:09:02;;;;;;;34.20;13.00;;;1.80;99.90;;;;;;4180319;28;20482;-54
2021/03/17 05:11:05;;;;;;;33.40;12.87;;;1.90;99.90;;;;;;4181110;28;20936;-55
2021/03/17 05:13:08;;;;;;;33.13;13.23;;;1.90;99.90;;;;;;4179955;28;22266;-55
2021/03/17 05:15:11;;;;;;;33.03;12.87;;;1.90;99.90;;;;;;4178076;28;20471;-54
2021/03/17 05:17:13;;;;;;;30.33;11.47;;;1.90;99.90;;;;;;4178212;28;21075;-55
2021/03/17 05:19:16;;;;;;;29.10;11.33;;;1.90;99.90;;;;;;4178846;28;20793;-54
2021/03/17 05:21:18;;;;;;;27.47;10.97;;;1.90;99.90;;;;;;4180034;28;20471;-55
2021/03/17 05:23:19;;;;;;;24.87;10.67;;;1.90;99.90;;;;;;4178496;28;20473;-54
2021/03/17 05:25:22;;;;;;;24.10;11.03;;;1.80;99.90;;;;;;4180277;28;20473;-54
2021/03/17 05:27:28;;;;;;;28.13;10.57;;;1.80;99.90;;;;;;4181545;28;20518;-55
2021/03/17 05:29:30;;;;;;;29.57;11.90;;;1.80;99.90;;;;;;4180051;28;20467;-54
2021/03/17 05:31:33;;;;;;;31.60;12.33;;;1.80;99.90;;;;;;4179847;28;20477;-56
2021/03/17 05:33:36;;;;;;;31.67;11.63;;;1.90;99.90;;;;;;4180854;28;20478;-55
2021/03/17 05:35:39;;;;;;;32.03;11.67;;;1.80;99.90;;;;;;4180427;28;20473;-55
2021/03/17 05:37:41;;;;;;;29.17;12.20;;;1.80;99.90;;;;;;4180721;28;20550;-55
2021/03/17 05:39:42;;;;;;;33.70;12.37;;;1.80;99.90;;;;;;4180228;28;20466;-55
2021/03/17 05:41:43;;;;;;;31.87;12.17;;;1.80;99.90;;;;;;4180483;28;20590;-54
2021/03/17 05:43:46;;;;;;;30.60;12.40;;;1.80;99.90;;;;;;4180028;28;20475;-55
2021/03/17 05:45:49;;;;;;;29.63;11.57;;;1.80;99.90;;;;;;4179562;28;20467;-54
2021/03/17 05:47:51;;;;;;;33.23;12.83;;;1.80;99.90;;;;;;4178292;28;21222;-55
2021/03/17 05:49:53;;;;;;;32.57;11.97;;;1.80;99.90;;;;;;4178952;28;20934;-55
2021/03/17 05:51:55;;;;;;;27.40;11.90;;;1.80;99.90;;;;;;4179576;28;20486;-55
2021/03/17 05:53:57;;;;;;;23.97;10.63;;;1.90;99.90;;;;;;4178691;28;20473;-55
2021/03/17 05:56:01;;;;;;;23.37;10.00;;;1.90;99.90;;;;;;4179925;28;20470;-55
2021/03/17 05:58:02;;;;;;;27.93;10.63;;;1.90;99.90;;;;;;4180610;28;20469;-59
2021/03/17 06:00:05;;;;;;;27.87;11.37;;;2.00;99.90;;;;;;4179120;28;20498;-55
2021/03/17 06:02:08;;;;;;;23.43;10.67;;;2.00;99.90;;;;;;4178730;28;20947;-55
2021/03/17 06:04:10;;;;;;;29.27;11.90;;;2.00;99.90;;;;;;4178752;28;21180;-55
2021/03/17 06:06:14;;;;;;;26.37;11.07;;;2.10;99.90;;;;;;4178587;28;20557;-57
2021/03/17 06:08:23;;;;;;;26.63;11.17;;;2.10;99.90;;;;;;4178768;28;20491;-55
2021/03/17 06:10:26;;;;;;;28.17;11.10;;;2.10;99.90;;;;;;4178891;28;20481;-55
2021/03/17 06:12:31;;;;;;;30.37;12.20;;;2.20;99.90;;;;;;4178765;28;20476;-55
2021/03/17 06:14:35;;;;;;;25.27;11.43;;;2.20;99.90;;;;;;4177635;28;20501;-55
2021/03/17 06:16:38;;;;;;;28.67;10.63;;;2.20;99.90;;;;;;4179239;28;20482;-55
2021/03/17 06:18:43;;;;;;;25.83;10.87;;;2.20;99.90;;;;;;4179273;28;20538;-55
2021/03/17 06:20:45;;;;;;;34.43;12.07;;;2.20;99.90;;;;;;4179047;28;21066;-55
2021/03/17 06:22:46;;;;;;;24.47;10.90;;;2.30;99.90;;;;;;4179119;28;20467;-55
2021/03/17 06:24:48;;;;;;;26.87;11.13;;;2.30;99.90;;;;;;4179124;28;20482;-56
2021/03/17 06:26:51;;;;;;;24.63;10.47;;;2.30;99.90;;;;;;4179250;28;21385;-57
2021/03/17 06:28:54;;;;;;;24.07;10.60;;;2.30;99.90;;;;;;4179285;28;20952;-56
2021/03/17 06:30:56;;;;;;;30.40;12.03;;;2.30;99.90;;;;;;4179184;28;20468;-55
2021/03/17 06:32:57;;;;;;;30.80;11.83;;;2.40;99.90;;;;;;4179436;28;20931;-55
2021/03/17 06:34:59;;;;;;;28.13;11.30;;;2.40;99.90;;;;;;4177767;28;20482;-55
2021/03/17 06:37:01;;;;;;;27.53;11.17;;;2.40;99.90;;;;;;4178442;28;20476;-55
2021/03/17 06:39:07;;;;;;;27.83;11.23;;;2.40;99.90;;;;;;4179068;28;20492;-55
2021/03/17 06:41:11;;;;;;;24.00;10.97;;;2.50;99.90;;;;;;4177429;28;21095;-55
2021/03/17 06:43:13;;;;;;;25.30;11.33;;;2.50;99.90;;;;;;4177428;28;20479;-55
2021/03/17 06:45:15;;;;;;;23.27;10.57;;;2.50;99.90;;;;;;4176505;28;20582;-55
2021/03/17 06:47:18;;;;;;;28.23;11.87;;;2.60;99.90;;;;;;4176642;28;20491;-55
2021/03/17 06:49:35;;;;;;;23.47;10.80;;;2.70;99.90;;;;;;4179661;28;20845;-55
2021/03/17 06:51:36;;;;;;;19.80;9.07;;;2.70;99.90;;;;;;4178345;28;20464;-55
2021/03/17 06:53:45;;;;;;;22.10;10.27;;;2.80;99.90;;;;;;4178140;28;21118;-55
2021/03/17 06:55:46;;;;;;;26.97;11.17;;;2.90;99.90;;;;;;4177440;28;20796;-55
2021/03/17 06:57:49;;;;;;;20.93;9.63;;;3.00;99.90;;;;;;4177698;28;20482;-58
2021/03/17 06:59:51;;;;;;;28.83;10.97;;;3.00;99.90;;;;;;4176272;28;20509;-55
2021/03/17 07:01:52;;;;;;;21.90;10.27;;;3.00;99.90;;;;;;4177082;28;20502;-58
2021/03/17 07:03:54;;;;;;;21.33;9.93;;;3.10;99.90;;;;;;4177301;28;20486;-59
2021/03/17 07:05:56;;;;;;;23.03;10.03;;;3.10;99.90;;;;;;4177458;28;20648;-55
2021/03/17 07:07:59;;;;;;;22.33;10.40;;;3.10;99.90;;;;;;4176563;28;20582;-56
2021/03/17 07:10:00;;;;;;;21.97;9.70;;;3.20;99.90;;;;;;4176530;28;20883;-56
2021/03/17 07:12:07;;;;;;;20.33;9.20;;;3.20;99.90;;;;;;4176737;28;20477;-56
2021/03/17 07:14:09;;;;;;;21.37;9.43;;;3.20;99.90;;;;;;4177128;28;20475;-57
2021/03/17 07:16:10;;;;;;;20.43;8.70;;;3.30;99.90;;;;;;4177541;28;20467;-58
2021/03/17 07:18:14;;;;;;;21.20;9.37;;;3.30;99.90;;;;;;4177519;28;20478;-56
2021/03/17 07:20:35;;;;;;;19.57;8.93;;;3.30;99.90;;;;;;4176081;28;20476;-56
2021/03/17 07:22:37;;;;;;;22.57;9.80;;;3.40;99.90;;;;;;4177436;28;20870;-55
2021/03/17 07:24:39;;;;;;;22.37;9.80;;;3.50;99.90;;;;;;4177256;28;20488;-56
2021/03/17 07:26:41;;;;;;;24.90;11.13;;;3.60;99.90;;;;;;4177768;28;21227;-56
2021/03/17 07:28:58;;;;;;;24.17;10.57;;;3.80;99.90;;;;;;4176103;28;20482;-56
2021/03/17 07:31:12;;;;;;;30.80;12.37;;;3.80;99.90;;;;;;4177840;28;20544;-56
2021/03/17 07:33:14;;;;;;;25.43;11.90;;;3.90;99.90;;;;;;4177558;28;20463;-55
2021/03/17 07:35:24;;;;;;;27.53;12.40;;;4.00;99.90;;;;;;4176818;28;20537;-55
2021/03/17 07:37:27;;;;;;;25.17;11.97;;;4.10;99.90;;;;;;4177333;28;21175;-55
2021/03/17 07:39:30;;;;;;;23.97;11.40;;;4.20;99.90;;;;;;4176228;28;20465;-55
2021/03/17 07:41:32;;;;;;;26.00;11.47;;;4.20;99.90;;;;;;4176644;28;20483;-55
2021/03/17 07:43:36;;;;;;;29.17;11.87;;;4.10;99.90;;;;;;4176903;28;20962;-55
2021/03/17 07:45:38;;;;;;;24.90;11.63;;;4.10;99.90;;;;;;4176754;28;21087;-56
2021/03/17 07:47:40;;;;;;;30.37;12.53;;;4.10;99.90;;;;;;4176505;28;20497;-56
2021/03/17 07:49:44;;;;;;;25.60;10.50;;;4.30;99.90;;;;;;4177337;28;20467;-56
2021/03/17 07:51:48;;;;;;;21.60;9.93;;;4.40;99.90;;;;;;4180569;28;20467;-56
2021/03/17 07:53:51;;;;;;;26.10;11.20;;;4.60;99.90;;;;;;4180197;28;20471;-56
2021/03/17 07:55:55;;;;;;;23.20;10.17;;;4.70;99.90;;;;;;4179008;28;21016;-55
2021/03/17 07:57:57;;;;;;;23.40;10.43;;;4.80;99.90;;;;;;4180999;28;20505;-58
2021/03/17 07:59:59;;;;;;;22.67;10.13;;;4.80;99.90;;;;;;4181167;28;20846;-59
2021/03/17 08:02:00;;;;;;;22.43;10.37;;;4.70;99.90;;;;;;4180827;28;20472;-59
2021/03/17 08:04:03;;;;;;;22.00;10.40;;;4.80;99.90;;;;;;4181088;28;20484;-59
2021/03/17 08:06:06;;;;;;;22.17;10.17;;;4.90;99.90;;;;;;4181283;28;20815;-59
2021/03/17 08:08:08;;;;;;;17.80;8.47;;;5.10;99.90;;;;;;4181709;28;20488;-59
2021/03/17 08:10:10;;;;;;;20.10;10.00;;;5.10;99.90;;;;;;4181202;28;20472;-59
2021/03/17 08:12:12;;;;;;;18.33;8.53;;;5.10;99.90;;;;;;4180004;28;20484;-59
2021/03/17 08:14:15;;;;;;;19.77;8.80;;;5.20;99.90;;;;;;4180871;28;20469;-59
2021/03/17 08:16:19;;;;;;;16.27;8.87;;;5.20;99.90;;;;;;4182336;28;21121;-59
2021/03/17 08:18:39;;;;;;;15.00;7.80;;;5.20;99.90;;;;;;4181795;28;20461;-59
2021/03/17 08:20:48;;;;;;;15.40;7.10;;;5.20;99.90;;;;;;4180707;28;20468;-59
2021/03/17 08:22:51;;;;;;;12.80;6.23;;;5.30;99.90;;;;;;4181440;28;20478;-59
2021/03/17 08:24:52;;;;;;;11.73;5.27;;;5.30;99.90;;;;;;4180624;28;20485;-59
2021/03/17 08:26:53;;;;;;;10.97;5.30;;;5.30;99.90;;;;;;4180685;28;20865;-59
2021/03/17 08:28:56;;;;;;;15.93;5.60;;;5.30;99.90;;;;;;4180799;28;20503;-60
2021/03/17 08:30:58;;;;;;;13.97;6.07;;;5.40;99.90;;;;;;4179940;28;20480;-60
2021/03/17 08:33:02;;;;;;;13.93;5.60;;;5.40;99.90;;;;;;4180471;28;20476;-59
2021/03/17 08:35:04;;;;;;;12.57;5.20;;;5.50;99.90;;;;;;4179765;28;20464;-59
2021/03/17 08:37:08;;;;;;;8.70;3.83;;;5.50;99.90;;;;;;4180679;28;20484;-59
2021/03/17 08:39:09;;;;;;;9.43;3.50;;;5.50;99.90;;;;;;4179798;28;21005;-59
2021/03/17 08:41:11;;;;;;;7.17;2.93;;;5.60;99.90;;;;;;4180506;28;20473;-60
2021/03/17 08:43:41;;;;;;;7.87;3.30;;;5.60;99.90;;;;;;4179964;28;20480;-59
2021/03/17 08:45:43;;;;;;;5.93;3.00;;;5.60;99.90;;;;;;4180440;28;20468;-60
2021/03/17 08:47:46;;;;;;;4.13;2.30;;;5.70;99.90;;;;;;4179099;28;20551;-61
2021/03/17 08:49:49;;;;;;;3.77;2.27;;;5.70;99.90;;;;;;4179268;28;20483;-59
2021/03/17 08:52:10;;;;;;;3.70;2.40;;;5.80;99.90;;;;;;4179682;28;20476;-59
2021/03/17 08:54:57;;;;;;;3.83;2.17;;;5.80;99.90;;;;;;4180552;28;20985;-59
2021/03/17 08:56:59;;;;;;;4.83;2.40;;;5.90;99.90;;;;;;4179984;28;20462;-59
2021/03/17 08:59:16;;;;;;;4.20;2.50;;;5.90;99.90;;;;;;4179788;28;20527;-60
2021/03/17 09:01:32;;;;;;;4.50;2.60;;;5.90;99.90;;;;;;4178355;28;20480;-60
2021/03/17 09:03:48;;;;;;;4.10;2.30;;;5.80;99.90;;;;;;4179842;28;20473;-60
2021/03/17 09:06:05;;;;;;;5.50;3.00;;;5.60;99.90;;;;;;4178562;28;20507;-60
2021/03/17 09:08:09;;;;;;;4.87;2.80;;;5.50;99.90;;;;;;4180046;28;20483;-60
2021/03/17 09:10:12;;;;;;;5.27;2.87;;;5.30;99.90;;;;;;4179508;28;20480;-58
2021/03/17 09:12:14;;;;;;;5.10;3.00;;;5.10;99.90;;;;;;4179904;28;20479;-58
2021/03/17 09:14:21;;;;;;;4.90;2.90;;;4.90;99.90;;;;;;4180257;28;20975;-58
2021/03/17 09:16:22;;;;;;;6.10;2.70;;;4.80;99.90;;;;;;4179385;28;20466;-58
2021/03/17 09:18:24;;;;;;;6.53;2.93;;;4.60;99.90;;;;;;4179832;28;21079;-59
2021/03/17 09:20:29;;;;;;;5.03;2.57;;;4.60;99.90;;;;;;4180071;28;20491;-59
2021/03/17 09:22:36;;;;;;;5.47;2.60;;;4.60;99.90;;;;;;4179906;28;20473;-58
2021/03/17 09:24:38;;;;;;;4.50;2.50;;;4.70;99.90;;;;;;4179754;28;20466;-58
2021/03/17 09:26:39;;;;;;;4.83;2.90;;;4.80;99.90;;;;;;4179883;28;21235;-58
2021/03/17 09:28:41;;;;;;;4.80;2.47;;;4.90;99.90;;;;;;4179571;28;20479;-59
2021/03/17 09:30:47;;;;;;;3.97;1.70;;;5.20;99.90;;;;;;4179523;28;20524;-59
2021/03/17 09:32:49;;;;;;;2.80;1.67;;;5.40;99.90;;;;;;4180202;28;20571;-59
2021/03/17 09:34:56;;;;;;;3.20;1.97;;;5.50;99.90;;;;;;4180046;28;20472;-59
2021/03/17 09:37:01;;;;;;;3.57;1.93;;;5.50;99.90;;;;;;4180541;28;20468;-59
2021/03/17 09:39:03;;;;;;;3.57;1.73;;;5.50;99.90;;;;;;4179735;28;20931;-59
2021/03/17 09:41:10;;;;;;;2.97;1.63;;;5.40;99.90;;;;;;4179879;28;20471;-63
2021/03/17 09:43:30;;;;;;;3.13;1.43;;;5.50;99.90;;;;;;4179329;28;20479;-59
2021/03/17 09:45:31;;;;;;;3.67;1.10;;;5.50;99.90;;;;;;4179387;28;20483;-59
2021/03/17 09:47:33;;;;;;;1.57;0.87;;;5.60;99.90;;;;;;4179054;28;20495;-59
2021/03/17 09:49:35;;;;;;;3.37;1.07;;;5.70;99.90;;;;;;4178995;28;20840;-59
2021/03/17 09:51:39;;;;;;;1.70;0.90;;;5.80;99.90;;;;;;4179189;28;20533;-59
2021/03/17 09:53:41;;;;;;;1.70;1.00;;;5.90;99.90;;;;;;4179065;28;20550;-59
2021/03/17 09:55:43;;;;;;;3.60;1.10;;;6.10;99.90;;;;;;4179232;28;21325;-59
2021/03/17 09:57:57;;;;;;;2.77;1.53;;;6.30;99.90;;;;;;4178738;28;20503;-59
2021/03/17 09:59:58;;;;;;;2.37;0.93;;;6.60;99.90;;;;;;4178579;28;20818;-59
2021/03/17 10:02:01;;;;;;;3.77;0.80;;;6.70;99.90;;;;;;4177945;28;20535;-59
2021/03/17 10:04:02;;;;;;;1.53;0.80;;;6.80;99.90;;;;;;4178454;28;20528;-59
2021/03/17 10:06:04;;;;;;;4.00;1.00;;;6.80;99.90;;;;;;4178902;28;20471;-59
2021/03/17 10:08:06;;;;;;;3.27;0.90;;;6.70;99.90;;;;;;4177598;28;20508;-59
2021/03/17 10:10:08;;;;;;;2.90;0.80;;;6.50;99.90;;;;;;4178829;28;20469;-60
2021/03/17 10:12:12;;;;;;;0.93;0.70;;;6.30;99.90;;;;;;4177073;28;20530;-59
2021/03/17 10:14:15;;;;;;;3.03;0.70;;;6.10;99.90;;;;;;4178455;28;20477;-59
2021/03/17 10:16:17;;;;;;;1.77;0.70;;;5.80;99.90;;;;;;4179152;28;20509;-59
2021/03/17 10:18:18;;;;;;;3.03;0.63;;;5.70;99.90;;;;;;4177299;28;20459;-59
2021/03/17 10:20:21;;;;;;;0.60;0.50;;;5.60;99.90;;;;;;4179261;28;20480;-60
2021/03/17 10:22:25;;;;;;;1.57;0.67;;;5.80;99.90;;;;;;4178922;28;20472;-59
2021/03/17 10:24:41;;;;;;;1.73;0.60;;;6.00;99.90;;;;;;4178650;28;21027;-58
2021/03/17 10:26:43;;;;;;;0.40;0.40;;;6.50;99.90;;;;;;4179198;28;21058;-59
2021/03/17 10:28:44;;;;;;;2.30;0.40;;;6.90;99.90;;;;;;4179565;28;20921;-59
2021/03/17 10:30:49;;;;;;;0.80;0.50;;;7.10;99.00;;;;;;4179083;28;20471;-59
2021/03/17 10:32:55;;;;;;;1.13;0.50;;;7.10;96.60;;;;;;4177748;28;20543;-59
2021/03/17 10:34:56;;;;;;;0.50;0.40;;;7.00;95.50;;;;;;4179195;28;20467;-59
2021/03/17 10:36:59;;;;;;;1.57;0.53;;;6.90;94.70;;;;;;4178294;28;20545;-59
2021/03/17 10:39:00;;;;;;;1.53;0.90;;;6.70;94.50;;;;;;4178907;28;20467;-59
2021/03/17 10:41:02;;;;;;;1.37;0.40;;;6.50;94.60;;;;;;4178183;28;20470;-59
2021/03/17 10:43:08;;;;;;;0.87;0.40;;;6.40;95.20;;;;;;4178800;28;20833;-59
2021/03/17 10:45:12;;;;;;;4.87;0.73;;;6.20;94.00;;;;;;4179516;28;20494;-59